createdAt,value
2023-03-11T00:01:10.640Z,10.48
2023-03-11T00:03:38.544Z,10.49
2023-03-11T00:06:07.499Z,10.50
2023-03-11T00:08:35.373Z,10.51
2023-03-11T00:11:03.309Z,10.52
2023-03-11T00:13:31.247Z,10.55
2023-03-11T00:16:00.809Z,10.58
2023-03-11T00:18:31.384Z,10.58
2023-03-11T00:21:00.148Z,10.59
2023-03-11T00:23:28.524Z,10.61
2023-03-11T00:25:56.789Z,10.63
2023-03-11T00:28:26.714Z,10.64
2023-03-11T00:30:54.743Z,10.65
2023-03-11T00:33:22.777Z,10.66
2023-03-11T00:35:50.918Z,10.64
2023-03-11T00:38:20.609Z,10.63
2023-03-11T00:40:49.170Z,10.65
2023-03-11T00:43:17.172Z,10.66
2023-03-11T00:45:45.111Z,10.67
2023-03-11T00:48:13.798Z,10.68
2023-03-11T00:50:42.223Z,10.68
2023-03-11T00:53:10.964Z,10.65
2023-03-11T00:55:38.898Z,10.67
2023-03-11T00:58:10.712Z,10.67
2023-03-11T01:00:50.018Z,10.68
2023-03-11T01:03:18.030Z,10.69
2023-03-11T01:05:47.190Z,10.68
2023-03-11T01:08:15.034Z,10.67
2023-03-11T01:10:43.028Z,10.66
2023-03-11T01:13:11.047Z,10.65
2023-03-11T01:15:39.041Z,10.64
2023-03-11T01:18:07.260Z,10.61
2023-03-11T01:20:36.649Z,10.60
2023-03-11T01:23:05.968Z,10.58
2023-03-11T01:25:33.938Z,10.56
2023-03-11T01:28:01.778Z,10.55
2023-03-11T01:30:31.226Z,10.53
2023-03-11T01:32:59.097Z,10.53
2023-03-11T01:35:28.991Z,10.53
2023-03-11T01:37:57.614Z,10.52
2023-03-11T01:40:39.613Z,10.49
2023-03-11T01:43:29.222Z,10.45
2023-03-11T01:45:57.099Z,10.41
2023-03-11T01:48:27.021Z,10.39
2023-03-11T01:50:55.095Z,10.38
2023-03-11T01:53:24.154Z,10.37
2023-03-11T01:55:52.427Z,10.34
2023-03-11T01:58:28.423Z,10.31
2023-03-11T02:00:56.633Z,10.30
2023-03-11T02:03:31.028Z,10.30
2023-03-11T02:06:01.324Z,10.30
2023-03-11T02:08:30.193Z,10.30
2023-03-11T02:10:58.326Z,10.32
2023-03-11T02:13:26.630Z,10.33
2023-03-11T02:15:54.596Z,10.37
2023-03-11T02:18:22.454Z,10.41
2023-03-11T02:21:10.692Z,10.46
2023-03-11T02:23:46.703Z,10.51
2023-03-11T02:26:28.011Z,10.57
2023-03-11T02:28:57.633Z,10.63
2023-03-11T02:31:26.945Z,10.67
2023-03-11T02:33:57.887Z,10.71
2023-03-11T02:36:40.025Z,10.73
2023-03-11T02:39:10.199Z,10.75
2023-03-11T02:41:40.320Z,10.73
2023-03-11T02:44:10.052Z,10.72
2023-03-11T02:46:38.958Z,10.72
2023-03-11T02:49:07.650Z,10.71
2023-03-11T02:51:35.834Z,10.69
2023-03-11T02:54:05.559Z,10.66
2023-03-11T02:56:34.548Z,10.63
2023-03-11T02:59:02.512Z,10.58
2023-03-11T03:01:31.238Z,10.50
2023-03-11T03:03:59.542Z,10.42
2023-03-11T03:06:28.734Z,10.35
2023-03-11T03:08:56.586Z,10.31
2023-03-11T03:11:24.400Z,10.28
2023-03-11T03:13:52.249Z,10.25
2023-03-11T03:16:20.240Z,10.21
2023-03-11T03:18:48.907Z,10.17
2023-03-11T03:21:16.814Z,10.12
2023-03-11T03:23:44.814Z,10.09
2023-03-11T03:26:14.045Z,10.05
2023-03-11T03:28:42.574Z,10.02
2023-03-11T03:31:10.944Z,9.98
2023-03-11T03:33:39.526Z,9.96
2023-03-11T03:36:11.637Z,9.93
2023-03-11T03:38:42.902Z,9.92
2023-03-11T03:41:13.273Z,9.88
2023-03-11T03:43:41.613Z,9.88
2023-03-11T03:46:09.910Z,9.85
2023-03-11T03:48:43.336Z,9.84
2023-03-11T03:51:13.324Z,9.82
2023-03-11T03:53:46.637Z,9.82
2023-03-11T03:56:17.191Z,9.79
2023-03-11T03:58:45.381Z,9.76
2023-03-11T04:01:13.768Z,9.73
2023-03-11T04:03:42.156Z,9.70
2023-03-11T04:06:18.576Z,9.69
2023-03-11T04:08:47.333Z,9.68
2023-03-11T04:11:15.798Z,9.69
2023-03-11T04:13:44.895Z,9.70
2023-03-11T04:16:16.942Z,9.71
2023-03-11T04:18:44.925Z,9.70
2023-03-11T04:21:12.776Z,9.70
2023-03-11T04:23:40.807Z,9.68
2023-03-11T04:26:08.961Z,9.65
2023-03-11T04:28:37.360Z,9.63
2023-03-11T04:31:05.503Z,9.60
2023-03-11T04:33:33.601Z,9.59
2023-03-11T04:36:05.118Z,9.57
2023-03-11T04:38:33.709Z,9.56
2023-03-11T04:41:02.294Z,9.53
2023-03-11T04:43:31.260Z,9.50
2023-03-11T04:45:59.400Z,9.49
2023-03-11T04:48:27.748Z,9.45
2023-03-11T04:50:55.884Z,9.43
2023-03-11T04:53:24.470Z,9.42
2023-03-11T04:55:53.899Z,9.42
2023-03-11T04:58:22.596Z,9.42
2023-03-11T05:00:51.673Z,9.42
2023-03-11T05:03:19.740Z,9.43
2023-03-11T05:05:47.997Z,9.45
2023-03-11T05:08:16.440Z,9.48
2023-03-11T05:10:45.542Z,9.50
2023-03-11T05:13:13.441Z,9.53
2023-03-11T05:15:41.933Z,9.58
2023-03-11T05:18:09.902Z,9.61
2023-03-11T05:20:38.627Z,9.66
2023-03-11T05:23:06.589Z,9.74
2023-03-11T05:25:35.685Z,9.82
2023-03-11T05:28:04.121Z,9.91
2023-03-11T05:30:32.200Z,9.95
2023-03-11T05:33:00.176Z,9.98
2023-03-11T05:35:28.413Z,9.99
2023-03-11T05:37:56.865Z,9.99
2023-03-11T05:40:25.807Z,10.01
2023-03-11T05:42:53.877Z,9.99
2023-03-11T05:45:21.943Z,9.91
2023-03-11T05:47:52.168Z,9.92
2023-03-11T05:50:20.535Z,9.89
2023-03-11T05:52:49.328Z,9.83
2023-03-11T05:55:17.618Z,9.81
2023-03-11T05:57:46.354Z,9.82
2023-03-11T06:00:15.039Z,9.77
2023-03-11T06:02:44.036Z,9.76
2023-03-11T06:05:14.410Z,9.76
2023-03-11T06:07:43.248Z,9.80
2023-03-11T06:10:12.044Z,9.77
2023-03-11T06:12:40.319Z,9.69
2023-03-11T06:15:13.115Z,9.60
2023-03-11T06:17:41.485Z,9.66
2023-03-11T06:20:10.068Z,9.69
2023-03-11T06:22:40.181Z,9.71
2023-03-11T06:25:08.972Z,9.64
2023-03-11T06:27:37.685Z,9.49
2023-03-11T06:30:07.107Z,9.44
2023-03-11T06:32:39.858Z,9.49
2023-03-11T06:35:09.351Z,9.47
2023-03-11T06:37:37.568Z,9.44
2023-03-11T06:40:07.567Z,9.27
2023-03-11T06:42:36.129Z,9.27
2023-03-11T06:45:05.185Z,9.34
2023-03-11T06:47:33.187Z,9.22
2023-03-11T06:50:06.718Z,9.18
2023-03-11T06:52:35.435Z,9.17
2023-03-11T06:55:04.061Z,9.04
2023-03-11T06:57:32.956Z,8.90
2023-03-11T07:00:01.929Z,8.87
2023-03-11T07:02:30.294Z,8.86
2023-03-11T07:04:58.495Z,8.85
2023-03-11T07:07:26.940Z,8.82
2023-03-11T07:09:55.889Z,8.79
2023-03-11T07:12:25.486Z,8.75
2023-03-11T07:14:55.385Z,8.75
2023-03-11T07:17:23.594Z,8.79
2023-03-11T07:19:53.069Z,8.82
2023-03-11T07:22:21.004Z,8.88
2023-03-11T07:24:49.532Z,8.91
2023-03-11T07:27:17.738Z,8.95
2023-03-11T07:29:45.746Z,9.00
2023-03-11T07:32:14.323Z,9.07
2023-03-11T07:34:42.398Z,9.16
2023-03-11T07:37:10.528Z,9.26
2023-03-11T07:39:39.273Z,9.32
2023-03-11T07:42:07.266Z,9.39
2023-03-11T07:44:36.267Z,9.36
2023-03-11T07:47:05.031Z,9.35
2023-03-11T07:49:33.208Z,9.33
2023-03-11T07:52:01.210Z,9.31
2023-03-11T07:54:29.032Z,9.28
2023-03-11T07:56:57.015Z,9.26
2023-03-11T07:59:25.798Z,9.31
2023-03-11T08:01:53.748Z,9.33
2023-03-11T08:04:21.549Z,9.33
2023-03-11T08:06:49.643Z,9.35
2023-03-11T08:09:17.883Z,9.37
2023-03-11T08:11:45.980Z,9.40
2023-03-11T08:14:14.460Z,9.46
2023-03-11T08:16:42.320Z,9.51
2023-03-11T08:19:12.088Z,9.57
2023-03-11T08:21:40.044Z,9.61
2023-03-11T08:24:08.177Z,9.64
2023-03-11T08:26:35.991Z,9.69
2023-03-11T08:29:03.938Z,9.73
2023-03-11T08:31:32.759Z,9.78
2023-03-11T08:34:02.048Z,9.77
2023-03-11T08:36:30.748Z,9.82
2023-03-11T08:38:59.193Z,9.87
2023-03-11T08:41:27.522Z,9.93
2023-03-11T08:43:55.375Z,9.98
2023-03-11T08:46:26.478Z,10.04
2023-03-11T08:48:54.653Z,10.09
2023-03-11T08:51:23.474Z,10.05
2023-03-11T08:53:52.107Z,10.08
2023-03-11T08:56:20.459Z,10.14
2023-03-11T08:58:49.157Z,10.20
2023-03-11T09:01:17.339Z,10.27
2023-03-11T09:03:45.222Z,10.32
2023-03-11T09:06:15.448Z,10.42
2023-03-11T09:08:43.714Z,10.56
2023-03-11T09:11:13.607Z,10.60
2023-03-11T09:13:42.424Z,10.70
2023-03-11T09:16:13.090Z,10.92
2023-03-11T09:18:41.062Z,11.24
2023-03-11T09:21:09.568Z,11.44
2023-03-11T09:23:37.758Z,11.57
2023-03-11T09:26:05.630Z,11.84
2023-03-11T09:28:33.594Z,12.12
2023-03-11T09:31:01.575Z,12.26
2023-03-11T09:33:29.727Z,12.34
2023-03-11T09:35:58.923Z,12.39
2023-03-11T09:38:26.730Z,12.47
2023-03-11T09:41:06.745Z,12.62
2023-03-11T09:43:34.625Z,12.73
2023-03-11T09:46:14.724Z,12.76
2023-03-11T09:49:00.985Z,12.65
2023-03-11T09:51:34.192Z,12.90
2023-03-11T09:54:06.223Z,12.94
2023-03-11T09:56:35.460Z,13.00
2023-03-11T09:59:21.692Z,13.00
2023-03-11T10:01:50.717Z,12.98
2023-03-11T10:04:38.893Z,13.16
2023-03-11T10:07:12.455Z,13.26
2023-03-11T10:09:48.915Z,13.20
2023-03-11T10:12:16.738Z,13.06
2023-03-11T10:15:03.759Z,12.81
2023-03-11T10:17:43.831Z,13.01
2023-03-11T10:20:14.852Z,13.16
2023-03-11T10:22:45.527Z,13.20
2023-03-11T10:25:31.013Z,13.30
2023-03-11T10:28:05.739Z,13.42
2023-03-11T10:30:54.817Z,13.55
2023-03-11T10:33:31.423Z,13.76
2023-03-11T10:36:03.799Z,13.96
2023-03-11T10:38:35.207Z,13.96
2023-03-11T10:41:12.884Z,14.08
2023-03-11T10:43:43.792Z,14.12
2023-03-11T10:46:19.540Z,14.16
2023-03-11T10:48:47.497Z,14.43
2023-03-11T10:51:27.005Z,14.70
2023-03-11T10:53:55.032Z,14.92
2023-03-11T10:56:31.434Z,15.17
2023-03-11T10:59:00.771Z,15.48
2023-03-11T11:01:29.996Z,15.49
2023-03-11T11:04:00.900Z,15.14
2023-03-11T11:06:30.392Z,14.85
2023-03-11T11:09:15.101Z,14.63
2023-03-11T11:12:03.444Z,14.28
2023-03-11T11:14:46.619Z,14.01
2023-03-11T11:17:19.651Z,13.90
2023-03-11T11:19:48.989Z,13.74
2023-03-11T11:22:18.454Z,13.61
2023-03-11T11:24:47.205Z,13.46
2023-03-11T11:27:17.015Z,13.32
2023-03-11T11:29:45.452Z,13.24
2023-03-11T11:32:19.477Z,13.13
2023-03-11T11:34:55.111Z,13.05
2023-03-11T11:37:23.636Z,12.95
2023-03-11T11:39:53.999Z,12.89
2023-03-11T11:42:23.395Z,12.86
2023-03-11T11:44:53.467Z,12.85
2023-03-11T11:47:28.021Z,12.79
2023-03-11T11:49:57.935Z,12.71
2023-03-11T11:52:28.084Z,12.64
2023-03-11T11:55:04.078Z,12.55
2023-03-11T11:57:31.971Z,12.54
2023-03-11T12:00:01.631Z,12.51
2023-03-11T12:02:42.855Z,12.47
2023-03-11T12:05:16.397Z,12.44
2023-03-11T12:07:51.366Z,12.44
2023-03-11T12:10:34.963Z,12.44
2023-03-11T12:13:06.054Z,12.46
2023-03-11T12:15:38.478Z,12.47
2023-03-11T12:18:10.701Z,12.45
2023-03-11T12:20:44.857Z,12.42
2023-03-11T12:23:18.693Z,12.39
2023-03-11T12:26:05.136Z,12.36
2023-03-11T12:28:39.108Z,12.33
2023-03-11T12:31:11.330Z,12.35
2023-03-11T12:33:46.665Z,12.33
2023-03-11T12:36:34.702Z,12.28
2023-03-11T12:39:05.918Z,12.26
2023-03-11T12:41:40.003Z,12.25
2023-03-11T12:44:27.489Z,12.17
2023-03-11T12:46:58.426Z,12.00
2023-03-11T12:49:27.568Z,11.85
2023-03-11T12:52:06.275Z,11.68
2023-03-11T12:54:39.639Z,11.55
2023-03-11T12:57:13.519Z,11.51
2023-03-11T12:59:53.561Z,11.50
2023-03-11T13:02:33.596Z,11.49
2023-03-11T13:05:04.494Z,11.51
2023-03-11T13:07:46.153Z,11.53
2023-03-11T13:10:20.533Z,11.57
2023-03-11T13:12:52.292Z,11.59
2023-03-11T13:15:20.114Z,11.62
2023-03-11T13:18:03.528Z,11.60
2023-03-11T13:20:43.388Z,11.47
2023-03-11T13:23:14.281Z,11.41
2023-03-11T13:25:43.472Z,11.39
2023-03-11T13:28:17.555Z,11.29
2023-03-11T13:31:03.890Z,11.25
2023-03-11T13:33:37.646Z,11.24
2023-03-11T13:36:07.437Z,11.25
2023-03-11T13:38:54.118Z,11.27
2023-03-11T13:41:31.450Z,11.17
2023-03-11T13:44:04.284Z,11.14
2023-03-11T13:46:38.461Z,11.01
2023-03-11T13:49:08.890Z,10.87
2023-03-11T13:51:47.397Z,10.75
2023-03-11T13:54:20.181Z,10.63
2023-03-11T13:56:57.136Z,10.61
2023-03-11T13:59:29.854Z,10.61
2023-03-11T14:01:59.833Z,10.58
2023-03-11T14:04:32.522Z,10.53
2023-03-11T14:07:00.659Z,10.50
2023-03-11T14:09:28.694Z,10.47
2023-03-11T14:12:04.142Z,10.49
2023-03-11T14:14:42.956Z,10.51
2023-03-11T14:17:15.946Z,10.52
2023-03-11T14:19:44.391Z,10.52
2023-03-11T14:22:15.405Z,10.50
2023-03-11T14:24:47.828Z,10.47
2023-03-11T14:27:16.985Z,10.43
2023-03-11T14:29:45.920Z,10.40
2023-03-11T14:32:16.969Z,10.43
2023-03-11T14:34:46.101Z,10.40
2023-03-11T14:37:32.777Z,10.39
2023-03-11T14:40:01.001Z,10.35
2023-03-11T14:42:39.090Z,10.28
2023-03-11T14:45:07.226Z,10.20
2023-03-11T14:47:40.281Z,10.14
2023-03-11T14:50:16.805Z,10.11
2023-03-11T14:52:52.761Z,10.04
2023-03-11T14:55:23.169Z,9.99
2023-03-11T14:57:55.158Z,9.91
2023-03-11T15:00:25.799Z,9.71
2023-03-11T15:03:02.616Z,9.56
2023-03-11T15:05:36.053Z,9.43
2023-03-11T15:08:05.144Z,9.36
2023-03-11T15:10:34.090Z,9.20
2023-03-11T15:13:06.640Z,9.08
2023-03-11T15:15:34.667Z,8.97
2023-03-11T15:18:02.710Z,8.84
2023-03-11T15:20:35.356Z,8.67
2023-03-11T15:23:04.724Z,8.53
2023-03-11T15:25:34.497Z,8.39
2023-03-11T15:28:20.724Z,8.25
2023-03-11T15:30:48.927Z,8.21
2023-03-11T15:33:21.632Z,8.14
2023-03-11T15:35:50.175Z,8.03
2023-03-11T15:38:20.811Z,7.89
2023-03-11T15:40:59.224Z,7.77
2023-03-11T15:43:27.017Z,7.68
2023-03-11T15:45:56.648Z,7.65
2023-03-11T15:48:25.181Z,7.62
2023-03-11T15:50:55.110Z,7.59
2023-03-11T15:53:24.446Z,7.43
2023-03-11T15:55:53.686Z,7.34
2023-03-11T15:58:21.874Z,7.26
2023-03-11T16:00:51.170Z,7.21
2023-03-11T16:03:19.639Z,7.22
2023-03-11T16:05:47.796Z,7.24
2023-03-11T16:08:16.042Z,7.26
2023-03-11T16:10:44.022Z,7.37
2023-03-11T16:13:15.311Z,7.43
2023-03-11T16:15:43.325Z,7.37
2023-03-11T16:18:11.750Z,7.33
2023-03-11T16:20:44.341Z,7.26
2023-03-11T16:23:15.666Z,7.19
2023-03-11T16:25:44.086Z,7.14
2023-03-11T16:28:14.205Z,7.10
2023-03-11T16:30:42.471Z,7.06
2023-03-11T16:33:10.631Z,7.04
2023-03-11T16:35:38.567Z,7.02
2023-03-11T16:38:07.603Z,6.96
2023-03-11T16:40:35.461Z,6.93
2023-03-11T16:43:05.011Z,6.91
2023-03-11T16:45:33.332Z,6.90
2023-03-11T16:48:01.326Z,6.86
2023-03-11T16:50:29.197Z,6.85
2023-03-11T16:52:57.807Z,6.82
2023-03-11T16:55:26.575Z,6.80
2023-03-11T16:57:56.058Z,6.80
2023-03-11T17:00:25.025Z,6.82
2023-03-11T17:02:52.926Z,6.76
2023-03-11T17:05:21.642Z,6.74
2023-03-11T17:07:53.050Z,6.68
2023-03-11T17:10:21.005Z,6.65
2023-03-11T17:12:48.832Z,6.61
2023-03-11T17:15:16.725Z,6.50
2023-03-11T17:17:44.635Z,6.48
2023-03-11T17:20:12.876Z,6.44
2023-03-11T17:22:40.775Z,6.42
2023-03-11T17:25:08.719Z,6.41
2023-03-11T17:27:36.745Z,6.36
2023-03-11T17:30:06.125Z,6.38
2023-03-11T17:32:34.227Z,6.44
2023-03-11T17:35:02.288Z,6.51
2023-03-11T17:37:30.448Z,6.59
2023-03-11T17:39:58.476Z,6.61
2023-03-11T17:42:26.485Z,6.58
2023-03-11T17:44:58.004Z,6.55
2023-03-11T17:47:28.583Z,6.49
2023-03-11T17:49:56.591Z,6.44
2023-03-11T17:52:24.558Z,6.32
2023-03-11T17:54:53.542Z,6.20
2023-03-11T17:57:21.545Z,6.14
2023-03-11T17:59:50.468Z,6.03
2023-03-11T18:02:18.846Z,6.00
2023-03-11T18:04:52.126Z,5.88
2023-03-11T18:07:22.316Z,5.77
2023-03-11T18:09:50.801Z,5.64
2023-03-11T18:12:19.115Z,5.57
2023-03-11T18:14:47.080Z,5.46
2023-03-11T18:17:16.758Z,5.35
2023-03-11T18:19:46.168Z,5.28
2023-03-11T18:22:15.506Z,5.29
2023-03-11T18:24:43.465Z,5.21
2023-03-11T18:27:11.340Z,5.19
2023-03-11T18:29:39.317Z,5.17
2023-03-11T18:32:07.279Z,5.13
2023-03-11T18:34:35.488Z,5.10
2023-03-11T18:37:03.545Z,5.12
2023-03-11T18:39:31.429Z,5.11
2023-03-11T18:41:59.364Z,5.05
2023-03-11T18:44:27.953Z,5.00
2023-03-11T18:46:56.004Z,4.98
2023-03-11T18:49:23.851Z,4.96
2023-03-11T18:51:51.701Z,4.96
2023-03-11T18:54:19.651Z,4.97
2023-03-11T18:56:47.618Z,4.94
2023-03-11T18:59:15.455Z,4.91
2023-03-11T19:01:43.361Z,4.94
2023-03-11T19:04:11.481Z,4.94
2023-03-11T19:06:39.757Z,4.92
2023-03-11T19:09:08.158Z,4.94
2023-03-11T19:11:36.153Z,4.96
2023-03-11T19:14:04.540Z,4.94
2023-03-11T19:16:32.586Z,4.98
2023-03-11T19:19:01.345Z,4.97
2023-03-11T19:21:29.299Z,4.99
2023-03-11T19:23:57.348Z,5.05
2023-03-11T19:26:37.716Z,5.04
2023-03-11T19:29:11.506Z,5.00
2023-03-11T19:31:39.498Z,4.96
2023-03-11T19:34:07.447Z,4.96
2023-03-11T19:36:35.327Z,4.89
2023-03-11T19:39:03.613Z,4.87
2023-03-11T19:41:31.532Z,4.87
2023-03-11T19:43:59.343Z,4.85
2023-03-11T19:46:27.680Z,4.85
2023-03-11T19:48:58.976Z,4.83
2023-03-11T19:51:32.937Z,4.81
2023-03-11T19:54:06.958Z,4.81
2023-03-11T19:56:34.799Z,4.84
2023-03-11T19:59:02.663Z,4.85
2023-03-11T20:01:31.753Z,4.80
2023-03-11T20:03:59.712Z,4.76
2023-03-11T20:06:27.743Z,4.76
2023-03-11T20:08:55.730Z,4.74
2023-03-11T20:11:23.600Z,4.68
2023-03-11T20:13:51.637Z,4.67
2023-03-11T20:16:19.950Z,4.67
2023-03-11T20:18:51.588Z,4.62
2023-03-11T20:21:19.495Z,4.60
2023-03-11T20:23:49.136Z,4.59
2023-03-11T20:26:18.555Z,4.59
2023-03-11T20:28:46.505Z,4.62
2023-03-11T20:31:16.467Z,4.60
2023-03-11T20:33:44.404Z,4.65
2023-03-11T20:36:14.533Z,4.66
2023-03-11T20:38:42.967Z,4.66
2023-03-11T20:41:10.906Z,4.66
2023-03-11T20:43:39.679Z,4.70
2023-03-11T20:46:08.403Z,4.70
2023-03-11T20:48:36.684Z,4.71
2023-03-11T20:51:06.260Z,4.73
2023-03-11T20:53:34.321Z,4.74
2023-03-11T20:56:06.634Z,4.77
2023-03-11T20:58:35.098Z,4.78
2023-03-11T21:01:14.021Z,4.76
2023-03-11T21:03:42.491Z,4.70
2023-03-11T21:06:24.049Z,4.70
2023-03-11T21:08:53.393Z,4.68
2023-03-11T21:11:21.876Z,4.65
2023-03-11T21:13:50.611Z,4.60
2023-03-11T21:16:18.685Z,4.54
2023-03-11T21:18:49.271Z,4.35
2023-03-11T21:21:18.013Z,4.23
2023-03-11T21:23:48.039Z,4.18
2023-03-11T21:26:17.048Z,4.09
2023-03-11T21:28:46.924Z,4.03
2023-03-11T21:31:17.024Z,3.97
2023-03-11T21:33:45.340Z,3.88
2023-03-11T21:36:14.097Z,3.73
2023-03-11T21:38:42.105Z,3.70
2023-03-11T21:41:11.668Z,3.63
2023-03-11T21:43:40.656Z,3.50
2023-03-11T21:46:09.925Z,3.45
2023-03-11T21:48:37.913Z,3.37
2023-03-11T21:51:06.238Z,3.18
2023-03-11T21:53:34.267Z,3.17
2023-03-11T21:56:03.830Z,3.19
2023-03-11T21:58:32.311Z,3.19
2023-03-11T22:01:00.473Z,3.23
2023-03-11T22:03:28.891Z,3.27
2023-03-11T22:06:00.132Z,3.32
2023-03-11T22:08:28.524Z,3.35
2023-03-11T22:10:56.706Z,3.38
2023-03-11T22:13:24.717Z,3.42
2023-03-11T22:15:52.510Z,3.42
2023-03-11T22:18:21.152Z,3.40
2023-03-11T22:20:49.260Z,3.30
2023-03-11T22:23:17.156Z,3.28
2023-03-11T22:25:45.131Z,3.27
2023-03-11T22:28:13.511Z,3.27
2023-03-11T22:30:41.354Z,3.23
2023-03-11T22:33:09.341Z,3.14
2023-03-11T22:35:37.241Z,3.15
2023-03-11T22:38:05.313Z,3.18
2023-03-11T22:40:34.164Z,3.16
2023-03-11T22:43:02.055Z,3.12
2023-03-11T22:45:29.912Z,3.14
2023-03-11T22:47:57.768Z,3.15
2023-03-11T22:50:25.756Z,3.15
2023-03-11T22:52:53.622Z,3.13
2023-03-11T22:55:21.523Z,3.07
2023-03-11T22:57:49.458Z,3.04
2023-03-11T23:00:19.431Z,3.02
2023-03-11T23:02:48.425Z,3.02
2023-03-11T23:05:16.643Z,2.97
2023-03-11T23:07:44.604Z,2.90
2023-03-11T23:10:13.565Z,2.88
2023-03-11T23:12:41.888Z,2.85
2023-03-11T23:15:12.726Z,2.79
2023-03-11T23:17:40.816Z,2.74
2023-03-11T23:20:10.442Z,2.68
2023-03-11T23:22:39.810Z,2.66
2023-03-11T23:25:09.715Z,2.62
2023-03-11T23:27:37.690Z,2.55
2023-03-11T23:30:06.278Z,2.56
2023-03-11T23:32:34.428Z,2.54
2023-03-11T23:35:02.829Z,2.49
2023-03-11T23:37:30.744Z,2.52
2023-03-11T23:39:58.762Z,2.43
2023-03-11T23:42:26.854Z,2.40
2023-03-11T23:44:54.904Z,2.36
2023-03-11T23:47:22.884Z,2.39
2023-03-11T23:49:50.794Z,2.46
2023-03-11T23:52:18.569Z,2.51
2023-03-11T23:54:46.370Z,2.52
2023-03-11T23:57:14.345Z,2.57
2023-03-11T23:59:42.419Z,2.58
